<?xml version="1.0" encoding="UTF-8"?><gpx creator="Wikiloc - http://www.wikiloc.com" version="1.1" xmlns="http://www.topografix.com/GPX/1/1" xmlns:xsi="http://www.w3.org/2001/XMLSchema-instance" xsi:schemaLocation="http://www.topografix.com/GPX/1/1 http://www.topografix.com/GPX/1/1/gpx.xsd"><wpt lat="40.174747" lon="-5.833819"><ele>0.0</ele><time>2015-09-28T17:56:48Z</time><name>Navaconcejo</name><cmt></cmt><desc></desc></wpt><wpt lat="40.117641" lon="-5.848429"><ele>0.0</ele><time>2015-09-28T17:56:57Z</time><name>Piornal</name><cmt></cmt><desc></desc></wpt><wpt lat="40.127638" lon="-5.849374"><ele>0.0</ele><time>2015-09-28T17:57:15Z</time><name>Camino de la Viña</name><cmt></cmt><desc></desc></wpt><wpt lat="40.126902" lon="-5.850928"><ele>0.0</ele><time>2015-09-28T17:57:28Z</time><name>Fte Matafrailes</name><cmt></cmt><desc></desc></wpt><wpt lat="40.130587" lon="-5.845772"><ele>0.0</ele><time>2015-09-28T17:58:47Z</time><name>Cascada del Calderón</name><cmt></cmt><desc></desc></wpt><wpt lat="40.130588" lon="-5.845713"><ele>0.0</ele><time>2015-09-28T17:59:08Z</time><name>Pte los Molinos</name><cmt></cmt><desc></desc></wpt><wpt lat="40.139116" lon="-5.850558"><ele>0.0</ele><time>2015-09-28T17:59:29Z</time><name>Pista del IRYDA</name><cmt></cmt><desc></desc></wpt><wpt lat="40.167238" lon="-5.846158"><ele>0.0</ele><time>2015-09-28T17:59:46Z</time><name>Cruce N-110</name><cmt></cmt><desc></desc></wpt><trk><name>PR-CC 15 Camino Real (Navaconcejo - Piornal)</name><cmt></cmt><desc></desc><trkseg><trkpt lat="40.174810" lon="-5.834139"><ele>459.2</ele><time>2013-11-20T07:46:20Z</time></trkpt><trkpt lat="40.174809" lon="-5.834089"><ele>459.3</ele><time>2013-11-20T07:46:41Z</time></trkpt><trkpt lat="40.174805" lon="-5.834048"><ele>459.5</ele><time>2013-11-20T07:47:04Z</time></trkpt><trkpt lat="40.174936" lon="-5.833965"><ele>456.0</ele><time>2013-11-20T07:47:26Z</time></trkpt><trkpt lat="40.174792" lon="-5.834036"><ele>459.9</ele><time>2013-11-20T07:47:47Z</time></trkpt><trkpt lat="40.174833" lon="-5.834460"><ele>459.9</ele><time>2013-11-20T07:48:09Z</time></trkpt><trkpt lat="40.174806" lon="-5.834127"><ele>459.4</ele><time>2013-11-20T07:48:32Z</time></trkpt><trkpt lat="40.174847" lon="-5.834643"><ele>460.3</ele><time>2013-11-20T07:48:54Z</time></trkpt><trkpt lat="40.174910" lon="-5.834912"><ele>459.6</ele><time>2013-11-20T07:49:15Z</time></trkpt><trkpt lat="40.174984" lon="-5.835227"><ele>457.8</ele><time>2013-11-20T07:49:38Z</time></trkpt><trkpt lat="40.175046" lon="-5.835511"><ele>457.2</ele><time>2013-11-20T07:50:00Z</time></trkpt><trkpt lat="40.175088" lon="-5.835844"><ele>457.1</ele><time>2013-11-20T07:50:21Z</time></trkpt><trkpt lat="40.175105" lon="-5.836071"><ele>456.5</ele><time>2013-11-20T07:50:43Z</time></trkpt><trkpt lat="40.175085" lon="-5.836346"><ele>456.0</ele><time>2013-11-20T07:51:06Z</time></trkpt><trkpt lat="40.175050" lon="-5.836665"><ele>455.6</ele><time>2013-11-20T07:51:27Z</time></trkpt><trkpt lat="40.175047" lon="-5.836947"><ele>454.6</ele><time>2013-11-20T07:51:49Z</time></trkpt><trkpt lat="40.175063" lon="-5.837214"><ele>453.6</ele><time>2013-11-20T07:52:12Z</time></trkpt><trkpt lat="40.175081" lon="-5.837515"><ele>452.5</ele><time>2013-11-20T07:52:34Z</time></trkpt><trkpt lat="40.175101" lon="-5.837700"><ele>452.5</ele><time>2013-11-20T07:52:55Z</time></trkpt><trkpt lat="40.175078" lon="-5.837914"><ele>452.5</ele><time>2013-11-20T07:53:18Z</time></trkpt><trkpt lat="40.175004" lon="-5.838154"><ele>452.2</ele><time>2013-11-20T07:53:40Z</time></trkpt><trkpt lat="40.174940" lon="-5.838384"><ele>452.3</ele><time>2013-11-20T07:54:01Z</time></trkpt><trkpt lat="40.174917" lon="-5.838585"><ele>451.5</ele><time>2013-11-20T07:54:23Z</time></trkpt><trkpt lat="40.174860" lon="-5.838788"><ele>450.9</ele><time>2013-11-20T07:54:46Z</time></trkpt><trkpt lat="40.174773" lon="-5.839034"><ele>450.3</ele><time>2013-11-20T07:55:08Z</time></trkpt><trkpt lat="40.174697" lon="-5.839210"><ele>450.5</ele><time>2013-11-20T07:55:29Z</time></trkpt><trkpt lat="40.174626" lon="-5.839330"><ele>451.5</ele><time>2013-11-20T07:55:52Z</time></trkpt><trkpt lat="40.174524" lon="-5.839458"><ele>452.2</ele><time>2013-11-20T07:56:14Z</time></trkpt><trkpt lat="40.174394" lon="-5.839605"><ele>452.2</ele><time>2013-11-20T07:56:35Z</time></trkpt><trkpt lat="40.174293" lon="-5.839713"><ele>451.5</ele><time>2013-11-20T07:56:58Z</time></trkpt><trkpt lat="40.174167" lon="-5.839863"><ele>449.8</ele><time>2013-11-20T07:57:20Z</time></trkpt><trkpt lat="40.173921" lon="-5.840190"><ele>451.3</ele><time>2013-11-20T07:57:41Z</time></trkpt><trkpt lat="40.173721" lon="-5.840417"><ele>452.5</ele><time>2013-11-20T07:58:03Z</time></trkpt><trkpt lat="40.173485" lon="-5.840674"><ele>452.7</ele><time>2013-11-20T07:58:26Z</time></trkpt><trkpt lat="40.173304" lon="-5.840907"><ele>452.4</ele><time>2013-11-20T07:58:48Z</time></trkpt><trkpt lat="40.173144" lon="-5.841083"><ele>452.7</ele><time>2013-11-20T07:59:09Z</time></trkpt><trkpt lat="40.172983" lon="-5.841229"><ele>452.2</ele><time>2013-11-20T07:59:32Z</time></trkpt><trkpt lat="40.172800" lon="-5.841344"><ele>450.9</ele><time>2013-11-20T07:59:54Z</time></trkpt><trkpt lat="40.172569" lon="-5.841508"><ele>448.3</ele><time>2013-11-20T08:00:15Z</time></trkpt><trkpt lat="40.172314" lon="-5.841697"><ele>447.4</ele><time>2013-11-20T08:00:37Z</time></trkpt><trkpt lat="40.172057" lon="-5.841906"><ele>448.2</ele><time>2013-11-20T08:01:00Z</time></trkpt><trkpt lat="40.171818" lon="-5.842064"><ele>447.9</ele><time>2013-11-20T08:01:21Z</time></trkpt><trkpt lat="40.171682" lon="-5.842134"><ele>447.5</ele><time>2013-11-20T08:01:43Z</time></trkpt><trkpt lat="40.171404" lon="-5.842231"><ele>446.4</ele><time>2013-11-20T08:02:06Z</time></trkpt><trkpt lat="40.171106" lon="-5.842354"><ele>444.8</ele><time>2013-11-20T08:02:28Z</time></trkpt><trkpt lat="40.170876" lon="-5.842474"><ele>443.3</ele><time>2013-11-20T08:02:49Z</time></trkpt><trkpt lat="40.170564" lon="-5.842631"><ele>443.4</ele><time>2013-11-20T08:03:12Z</time></trkpt><trkpt lat="40.170301" lon="-5.842781"><ele>443.2</ele><time>2013-11-20T08:03:34Z</time></trkpt><trkpt lat="40.170045" lon="-5.842920"><ele>442.6</ele><time>2013-11-20T08:03:55Z</time></trkpt><trkpt lat="40.169782" lon="-5.843100"><ele>442.5</ele><time>2013-11-20T08:04:17Z</time></trkpt><trkpt lat="40.169510" lon="-5.843265"><ele>442.9</ele><time>2013-11-20T08:04:40Z</time></trkpt><trkpt lat="40.169250" lon="-5.843415"><ele>443.7</ele><time>2013-11-20T08:05:02Z</time></trkpt><trkpt lat="40.169003" lon="-5.843537"><ele>444.1</ele><time>2013-11-20T08:05:23Z</time></trkpt><trkpt lat="40.168768" lon="-5.843665"><ele>444.3</ele><time>2013-11-20T08:05:46Z</time></trkpt><trkpt lat="40.168670" lon="-5.843729"><ele>444.3</ele><time>2013-11-20T08:06:08Z</time></trkpt><trkpt lat="40.168435" lon="-5.843948"><ele>444.2</ele><time>2013-11-20T08:06:29Z</time></trkpt><trkpt lat="40.168294" lon="-5.844103"><ele>444.5</ele><time>2013-11-20T08:06:52Z</time></trkpt><trkpt lat="40.168207" lon="-5.844153"><ele>445.2</ele><time>2013-11-20T08:07:14Z</time></trkpt><trkpt lat="40.168154" lon="-5.844206"><ele>445.7</ele><time>2013-11-20T08:07:35Z</time></trkpt><trkpt lat="40.168036" lon="-5.844310"><ele>446.7</ele><time>2013-11-20T08:07:57Z</time></trkpt><trkpt lat="40.167967" lon="-5.844392"><ele>447.3</ele><time>2013-11-20T08:08:20Z</time></trkpt><trkpt lat="40.167915" lon="-5.844466"><ele>447.7</ele><time>2013-11-20T08:08:42Z</time></trkpt><trkpt lat="40.167819" lon="-5.844706"><ele>448.1</ele><time>2013-11-20T08:09:03Z</time></trkpt><trkpt lat="40.167777" lon="-5.844860"><ele>448.2</ele><time>2013-11-20T08:09:26Z</time></trkpt><trkpt lat="40.167708" lon="-5.845127"><ele>448.0</ele><time>2013-11-20T08:09:48Z</time></trkpt><trkpt lat="40.167630" lon="-5.845461"><ele>447.2</ele><time>2013-11-20T08:10:09Z</time></trkpt><trkpt lat="40.167571" lon="-5.845650"><ele>446.6</ele><time>2013-11-20T08:10:31Z</time></trkpt><trkpt lat="40.167507" lon="-5.845791"><ele>446.2</ele><time>2013-11-20T08:10:54Z</time></trkpt><trkpt lat="40.167482" lon="-5.845892"><ele>446.0</ele><time>2013-11-20T08:11:15Z</time></trkpt><trkpt lat="40.167403" lon="-5.845989"><ele>446.4</ele><time>2013-11-20T08:11:37Z</time></trkpt><trkpt lat="40.167364" lon="-5.846087"><ele>446.5</ele><time>2013-11-20T08:12:00Z</time></trkpt><trkpt lat="40.167320" lon="-5.846150"><ele>446.7</ele><time>2013-11-20T08:12:22Z</time></trkpt><trkpt lat="40.167279" lon="-5.846166"><ele>446.9</ele><time>2013-11-20T08:12:43Z</time></trkpt><trkpt lat="40.167153" lon="-5.846146"><ele>447.7</ele><time>2013-11-20T08:13:06Z</time></trkpt><trkpt lat="40.166991" lon="-5.846154"><ele>448.7</ele><time>2013-11-20T08:13:28Z</time></trkpt><trkpt lat="40.166807" lon="-5.846128"><ele>449.8</ele><time>2013-11-20T08:13:49Z</time></trkpt><trkpt lat="40.166643" lon="-5.846104"><ele>450.9</ele><time>2013-11-20T08:14:11Z</time></trkpt><trkpt lat="40.166424" lon="-5.846033"><ele>453.5</ele><time>2013-11-20T08:14:34Z</time></trkpt><trkpt lat="40.166287" lon="-5.846013"><ele>455.0</ele><time>2013-11-20T08:14:56Z</time></trkpt><trkpt lat="40.166217" lon="-5.846022"><ele>455.8</ele><time>2013-11-20T08:15:17Z</time></trkpt><trkpt lat="40.166151" lon="-5.846080"><ele>456.3</ele><time>2013-11-20T08:15:40Z</time></trkpt><trkpt lat="40.166012" lon="-5.846136"><ele>457.6</ele><time>2013-11-20T08:16:02Z</time></trkpt><trkpt lat="40.165789" lon="-5.846215"><ele>459.6</ele><time>2013-11-20T08:16:23Z</time></trkpt><trkpt lat="40.165657" lon="-5.846265"><ele>460.7</ele><time>2013-11-20T08:16:46Z</time></trkpt><trkpt lat="40.165602" lon="-5.846325"><ele>461.0</ele><time>2013-11-20T08:17:08Z</time></trkpt><trkpt lat="40.165547" lon="-5.846431"><ele>461.0</ele><time>2013-11-20T08:17:29Z</time></trkpt><trkpt lat="40.165463" lon="-5.846562"><ele>461.1</ele><time>2013-11-20T08:17:51Z</time></trkpt><trkpt lat="40.165333" lon="-5.846742"><ele>461.0</ele><time>2013-11-20T08:18:14Z</time></trkpt><trkpt lat="40.165216" lon="-5.846907"><ele>460.3</ele><time>2013-11-20T08:18:36Z</time></trkpt><trkpt lat="40.165088" lon="-5.847055"><ele>459.7</ele><time>2013-11-20T08:18:57Z</time></trkpt><trkpt lat="40.164949" lon="-5.847219"><ele>459.3</ele><time>2013-11-20T08:19:20Z</time></trkpt><trkpt lat="40.164822" lon="-5.847366"><ele>459.8</ele><time>2013-11-20T08:19:42Z</time></trkpt><trkpt lat="40.164664" lon="-5.847542"><ele>460.5</ele><time>2013-11-20T08:20:03Z</time></trkpt><trkpt lat="40.164533" lon="-5.847654"><ele>461.2</ele><time>2013-11-20T08:20:25Z</time></trkpt><trkpt lat="40.164288" lon="-5.847825"><ele>462.9</ele><time>2013-11-20T08:20:48Z</time></trkpt><trkpt lat="40.164142" lon="-5.847913"><ele>464.0</ele><time>2013-11-20T08:21:09Z</time></trkpt><trkpt lat="40.164023" lon="-5.848058"><ele>463.8</ele><time>2013-11-20T08:21:31Z</time></trkpt><trkpt lat="40.163920" lon="-5.848153"><ele>464.0</ele><time>2013-11-20T08:21:54Z</time></trkpt><trkpt lat="40.163822" lon="-5.848264"><ele>463.9</ele><time>2013-11-20T08:22:16Z</time></trkpt><trkpt lat="40.163744" lon="-5.848346"><ele>463.9</ele><time>2013-11-20T08:22:37Z</time></trkpt><trkpt lat="40.163546" lon="-5.848502"><ele>464.8</ele><time>2013-11-20T08:23:00Z</time></trkpt><trkpt lat="40.163347" lon="-5.848625"><ele>465.9</ele><time>2013-11-20T08:23:22Z</time></trkpt><trkpt lat="40.163141" lon="-5.848764"><ele>465.2</ele><time>2013-11-20T08:23:43Z</time></trkpt><trkpt lat="40.162959" lon="-5.848841"><ele>465.5</ele><time>2013-11-20T08:24:05Z</time></trkpt><trkpt lat="40.162794" lon="-5.848878"><ele>466.3</ele><time>2013-11-20T08:24:28Z</time></trkpt><trkpt lat="40.162712" lon="-5.848916"><ele>466.6</ele><time>2013-11-20T08:24:50Z</time></trkpt><trkpt lat="40.162642" lon="-5.849010"><ele>466.2</ele><time>2013-11-20T08:25:11Z</time></trkpt><trkpt lat="40.162556" lon="-5.849209"><ele>465.2</ele><time>2013-11-20T08:25:34Z</time></trkpt><trkpt lat="40.162436" lon="-5.849330"><ele>466.3</ele><time>2013-11-20T08:25:56Z</time></trkpt><trkpt lat="40.162351" lon="-5.849406"><ele>467.3</ele><time>2013-11-20T08:26:17Z</time></trkpt><trkpt lat="40.162335" lon="-5.849481"><ele>467.4</ele><time>2013-11-20T08:26:40Z</time></trkpt><trkpt lat="40.162376" lon="-5.849656"><ele>466.4</ele><time>2013-11-20T08:27:02Z</time></trkpt><trkpt lat="40.162408" lon="-5.850573"><ele>463.2</ele><time>2013-11-20T08:27:23Z</time></trkpt><trkpt lat="40.162395" lon="-5.850731"><ele>463.0</ele><time>2013-11-20T08:27:45Z</time></trkpt><trkpt lat="40.162340" lon="-5.850849"><ele>463.9</ele><time>2013-11-20T08:28:08Z</time></trkpt><trkpt lat="40.162283" lon="-5.850891"><ele>464.8</ele><time>2013-11-20T08:28:30Z</time></trkpt><trkpt lat="40.162220" lon="-5.850871"><ele>466.6</ele><time>2013-11-20T08:28:51Z</time></trkpt><trkpt lat="40.162206" lon="-5.850794"><ele>467.5</ele><time>2013-11-20T08:29:14Z</time></trkpt><trkpt lat="40.162203" lon="-5.850738"><ele>467.7</ele><time>2013-11-20T08:29:36Z</time></trkpt><trkpt lat="40.162244" lon="-5.850616"><ele>467.0</ele><time>2013-11-20T08:29:57Z</time></trkpt><trkpt lat="40.162225" lon="-5.850486"><ele>467.8</ele><time>2013-11-20T08:30:19Z</time></trkpt><trkpt lat="40.162138" lon="-5.850433"><ele>469.9</ele><time>2013-11-20T08:30:42Z</time></trkpt><trkpt lat="40.162037" lon="-5.850440"><ele>472.3</ele><time>2013-11-20T08:31:03Z</time></trkpt><trkpt lat="40.161891" lon="-5.850437"><ele>475.7</ele><time>2013-11-20T08:31:25Z</time></trkpt><trkpt lat="40.161745" lon="-5.850325"><ele>479.2</ele><time>2013-11-20T08:31:48Z</time></trkpt><trkpt lat="40.161626" lon="-5.850194"><ele>481.6</ele><time>2013-11-20T08:32:10Z</time></trkpt><trkpt lat="40.161497" lon="-5.850154"><ele>483.4</ele><time>2013-11-20T08:32:31Z</time></trkpt><trkpt lat="40.161388" lon="-5.850164"><ele>484.9</ele><time>2013-11-20T08:32:54Z</time></trkpt><trkpt lat="40.161297" lon="-5.850221"><ele>486.4</ele><time>2013-11-20T08:33:16Z</time></trkpt><trkpt lat="40.161159" lon="-5.850330"><ele>488.7</ele><time>2013-11-20T08:33:37Z</time></trkpt><trkpt lat="40.161065" lon="-5.850309"><ele>490.0</ele><time>2013-11-20T08:33:59Z</time></trkpt><trkpt lat="40.160722" lon="-5.850077"><ele>493.7</ele><time>2013-11-20T08:34:22Z</time></trkpt><trkpt lat="40.160594" lon="-5.850045"><ele>495.1</ele><time>2013-11-20T08:34:44Z</time></trkpt><trkpt lat="40.160507" lon="-5.850112"><ele>496.4</ele><time>2013-11-20T08:35:05Z</time></trkpt><trkpt lat="40.160468" lon="-5.850222"><ele>497.3</ele><time>2013-11-20T08:35:28Z</time></trkpt><trkpt lat="40.160474" lon="-5.850369"><ele>497.9</ele><time>2013-11-20T08:35:50Z</time></trkpt><trkpt lat="40.160526" lon="-5.850521"><ele>498.0</ele><time>2013-11-20T08:36:11Z</time></trkpt><trkpt lat="40.160593" lon="-5.850656"><ele>497.8</ele><time>2013-11-20T08:36:34Z</time></trkpt><trkpt lat="40.160588" lon="-5.850755"><ele>498.3</ele><time>2013-11-20T08:36:56Z</time></trkpt><trkpt lat="40.160537" lon="-5.850800"><ele>499.1</ele><time>2013-11-20T08:37:17Z</time></trkpt><trkpt lat="40.160374" lon="-5.850849"><ele>500.9</ele><time>2013-11-20T08:37:39Z</time></trkpt><trkpt lat="40.160120" lon="-5.850847"><ele>503.6</ele><time>2013-11-20T08:38:02Z</time></trkpt><trkpt lat="40.159788" lon="-5.850874"><ele>507.0</ele><time>2013-11-20T08:38:24Z</time></trkpt><trkpt lat="40.159430" lon="-5.850874"><ele>510.7</ele><time>2013-11-20T08:38:45Z</time></trkpt><trkpt lat="40.158943" lon="-5.850886"><ele>513.6</ele><time>2013-11-20T08:39:08Z</time></trkpt><trkpt lat="40.158774" lon="-5.850882"><ele>513.9</ele><time>2013-11-20T08:39:30Z</time></trkpt><trkpt lat="40.158655" lon="-5.850804"><ele>514.9</ele><time>2013-11-20T08:39:51Z</time></trkpt><trkpt lat="40.158550" lon="-5.850738"><ele>515.9</ele><time>2013-11-20T08:40:13Z</time></trkpt><trkpt lat="40.158198" lon="-5.850496"><ele>520.7</ele><time>2013-11-20T08:40:36Z</time></trkpt><trkpt lat="40.158096" lon="-5.850356"><ele>523.2</ele><time>2013-11-20T08:40:57Z</time></trkpt><trkpt lat="40.157982" lon="-5.850152"><ele>526.8</ele><time>2013-11-20T08:41:19Z</time></trkpt><trkpt lat="40.157886" lon="-5.850022"><ele>529.3</ele><time>2013-11-20T08:41:42Z</time></trkpt><trkpt lat="40.157752" lon="-5.849875"><ele>532.4</ele><time>2013-11-20T08:42:04Z</time></trkpt><trkpt lat="40.157614" lon="-5.849802"><ele>534.3</ele><time>2013-11-20T08:42:25Z</time></trkpt><trkpt lat="40.157477" lon="-5.849629"><ele>538.3</ele><time>2013-11-20T08:42:48Z</time></trkpt><trkpt lat="40.157437" lon="-5.849504"><ele>540.9</ele><time>2013-11-20T08:43:10Z</time></trkpt><trkpt lat="40.157315" lon="-5.849317"><ele>544.7</ele><time>2013-11-20T08:43:31Z</time></trkpt><trkpt lat="40.157222" lon="-5.849251"><ele>546.0</ele><time>2013-11-20T08:43:53Z</time></trkpt><trkpt lat="40.156972" lon="-5.849162"><ele>547.7</ele><time>2013-11-20T08:44:16Z</time></trkpt><trkpt lat="40.156723" lon="-5.849054"><ele>548.6</ele><time>2013-11-20T08:44:38Z</time></trkpt><trkpt lat="40.156607" lon="-5.849006"><ele>549.4</ele><time>2013-11-20T08:44:59Z</time></trkpt><trkpt lat="40.156548" lon="-5.848927"><ele>550.3</ele><time>2013-11-20T08:45:22Z</time></trkpt><trkpt lat="40.156410" lon="-5.848757"><ele>552.5</ele><time>2013-11-20T08:45:44Z</time></trkpt><trkpt lat="40.156369" lon="-5.848720"><ele>553.0</ele><time>2013-11-20T08:46:05Z</time></trkpt><trkpt lat="40.156284" lon="-5.848690"><ele>553.9</ele><time>2013-11-20T08:46:28Z</time></trkpt><trkpt lat="40.156124" lon="-5.848580"><ele>556.2</ele><time>2013-11-20T08:46:50Z</time></trkpt><trkpt lat="40.156026" lon="-5.848450"><ele>558.1</ele><time>2013-11-20T08:47:11Z</time></trkpt><trkpt lat="40.155941" lon="-5.848267"><ele>560.4</ele><time>2013-11-20T08:47:33Z</time></trkpt><trkpt lat="40.155877" lon="-5.848095"><ele>562.2</ele><time>2013-11-20T08:47:56Z</time></trkpt><trkpt lat="40.155845" lon="-5.847941"><ele>563.7</ele><time>2013-11-20T08:48:18Z</time></trkpt><trkpt lat="40.155799" lon="-5.847792"><ele>565.0</ele><time>2013-11-20T08:48:39Z</time></trkpt><trkpt lat="40.155758" lon="-5.847734"><ele>565.5</ele><time>2013-11-20T08:49:02Z</time></trkpt><trkpt lat="40.155699" lon="-5.847653"><ele>566.3</ele><time>2013-11-20T08:49:24Z</time></trkpt><trkpt lat="40.155605" lon="-5.847628"><ele>566.7</ele><time>2013-11-20T08:49:45Z</time></trkpt><trkpt lat="40.155474" lon="-5.847643"><ele>566.9</ele><time>2013-11-20T08:50:07Z</time></trkpt><trkpt lat="40.155325" lon="-5.847658"><ele>567.2</ele><time>2013-11-20T08:50:30Z</time></trkpt><trkpt lat="40.155041" lon="-5.847652"><ele>568.0</ele><time>2013-11-20T08:50:51Z</time></trkpt><trkpt lat="40.154919" lon="-5.847594"><ele>569.2</ele><time>2013-11-20T08:51:13Z</time></trkpt><trkpt lat="40.154677" lon="-5.847540"><ele>571.8</ele><time>2013-11-20T08:51:36Z</time></trkpt><trkpt lat="40.154589" lon="-5.847559"><ele>572.5</ele><time>2013-11-20T08:51:58Z</time></trkpt><trkpt lat="40.154436" lon="-5.847656"><ele>573.1</ele><time>2013-11-20T08:52:19Z</time></trkpt><trkpt lat="40.154252" lon="-5.847715"><ele>574.2</ele><time>2013-11-20T08:52:42Z</time></trkpt><trkpt lat="40.154176" lon="-5.847695"><ele>575.0</ele><time>2013-11-20T08:53:04Z</time></trkpt><trkpt lat="40.154055" lon="-5.847646"><ele>578.1</ele><time>2013-11-20T08:53:25Z</time></trkpt><trkpt lat="40.153900" lon="-5.847660"><ele>581.5</ele><time>2013-11-20T08:53:47Z</time></trkpt><trkpt lat="40.153783" lon="-5.847728"><ele>583.4</ele><time>2013-11-20T08:54:10Z</time></trkpt><trkpt lat="40.153709" lon="-5.847825"><ele>584.1</ele><time>2013-11-20T08:54:32Z</time></trkpt><trkpt lat="40.153653" lon="-5.847805"><ele>585.6</ele><time>2013-11-20T08:54:53Z</time></trkpt><trkpt lat="40.153607" lon="-5.847650"><ele>588.2</ele><time>2013-11-20T08:55:16Z</time></trkpt><trkpt lat="40.153554" lon="-5.847519"><ele>590.8</ele><time>2013-11-20T08:55:38Z</time></trkpt><trkpt lat="40.153504" lon="-5.847540"><ele>591.7</ele><time>2013-11-20T08:55:59Z</time></trkpt><trkpt lat="40.153378" lon="-5.847726"><ele>592.6</ele><time>2013-11-20T08:56:22Z</time></trkpt><trkpt lat="40.153254" lon="-5.847823"><ele>594.7</ele><time>2013-11-20T08:56:44Z</time></trkpt><trkpt lat="40.153069" lon="-5.847995"><ele>597.6</ele><time>2013-11-20T08:57:05Z</time></trkpt><trkpt lat="40.152962" lon="-5.848075"><ele>599.4</ele><time>2013-11-20T08:57:27Z</time></trkpt><trkpt lat="40.152751" lon="-5.848228"><ele>602.6</ele><time>2013-11-20T08:57:50Z</time></trkpt><trkpt lat="40.152499" lon="-5.848385"><ele>606.3</ele><time>2013-11-20T08:58:12Z</time></trkpt><trkpt lat="40.152245" lon="-5.848477"><ele>609.4</ele><time>2013-11-20T08:58:33Z</time></trkpt><trkpt lat="40.152038" lon="-5.848536"><ele>612.1</ele><time>2013-11-20T08:58:56Z</time></trkpt><trkpt lat="40.151981" lon="-5.848574"><ele>612.5</ele><time>2013-11-20T08:59:18Z</time></trkpt><trkpt lat="40.151799" lon="-5.848631"><ele>614.7</ele><time>2013-11-20T08:59:39Z</time></trkpt><trkpt lat="40.151545" lon="-5.848629"><ele>619.6</ele><time>2013-11-20T09:00:01Z</time></trkpt><trkpt lat="40.151458" lon="-5.848608"><ele>621.8</ele><time>2013-11-20T09:00:24Z</time></trkpt><trkpt lat="40.151255" lon="-5.848512"><ele>627.1</ele><time>2013-11-20T09:00:45Z</time></trkpt><trkpt lat="40.151039" lon="-5.848412"><ele>632.0</ele><time>2013-11-20T09:01:07Z</time></trkpt><trkpt lat="40.150842" lon="-5.848380"><ele>635.7</ele><time>2013-11-20T09:01:30Z</time></trkpt><trkpt lat="40.150803" lon="-5.848414"><ele>636.4</ele><time>2013-11-20T09:01:52Z</time></trkpt><trkpt lat="40.150780" lon="-5.848498"><ele>636.7</ele><time>2013-11-20T09:02:13Z</time></trkpt><trkpt lat="40.150795" lon="-5.848625"><ele>635.9</ele><time>2013-11-20T09:02:36Z</time></trkpt><trkpt lat="40.150720" lon="-5.848580"><ele>637.8</ele><time>2013-11-20T09:02:58Z</time></trkpt><trkpt lat="40.150564" lon="-5.848518"><ele>641.7</ele><time>2013-11-20T09:03:19Z</time></trkpt><trkpt lat="40.150475" lon="-5.848558"><ele>643.7</ele><time>2013-11-20T09:03:41Z</time></trkpt><trkpt lat="40.150422" lon="-5.848618"><ele>644.9</ele><time>2013-11-20T09:04:04Z</time></trkpt><trkpt lat="40.150387" lon="-5.848663"><ele>645.6</ele><time>2013-11-20T09:04:26Z</time></trkpt><trkpt lat="40.150310" lon="-5.848669"><ele>647.5</ele><time>2013-11-20T09:04:47Z</time></trkpt><trkpt lat="40.150262" lon="-5.848617"><ele>648.7</ele><time>2013-11-20T09:05:10Z</time></trkpt><trkpt lat="40.150221" lon="-5.848513"><ele>649.8</ele><time>2013-11-20T09:05:32Z</time></trkpt><trkpt lat="40.150160" lon="-5.848442"><ele>651.3</ele><time>2013-11-20T09:05:53Z</time></trkpt><trkpt lat="40.150076" lon="-5.848371"><ele>653.3</ele><time>2013-11-20T09:06:16Z</time></trkpt><trkpt lat="40.150023" lon="-5.848337"><ele>654.5</ele><time>2013-11-20T09:06:38Z</time></trkpt><trkpt lat="40.149966" lon="-5.848352"><ele>655.8</ele><time>2013-11-20T09:06:59Z</time></trkpt><trkpt lat="40.149940" lon="-5.848422"><ele>656.4</ele><time>2013-11-20T09:07:21Z</time></trkpt><trkpt lat="40.149939" lon="-5.848448"><ele>656.4</ele><time>2013-11-20T09:07:44Z</time></trkpt><trkpt lat="40.149883" lon="-5.848431"><ele>657.7</ele><time>2013-11-20T09:08:06Z</time></trkpt><trkpt lat="40.149843" lon="-5.848415"><ele>658.6</ele><time>2013-11-20T09:08:27Z</time></trkpt><trkpt lat="40.149780" lon="-5.848421"><ele>660.0</ele><time>2013-11-20T09:08:50Z</time></trkpt><trkpt lat="40.149753" lon="-5.848437"><ele>660.6</ele><time>2013-11-20T09:09:12Z</time></trkpt><trkpt lat="40.149707" lon="-5.848465"><ele>661.6</ele><time>2013-11-20T09:09:33Z</time></trkpt><trkpt lat="40.149683" lon="-5.848537"><ele>662.1</ele><time>2013-11-20T09:09:55Z</time></trkpt><trkpt lat="40.149615" lon="-5.848555"><ele>663.7</ele><time>2013-11-20T09:10:18Z</time></trkpt><trkpt lat="40.149559" lon="-5.848632"><ele>664.9</ele><time>2013-11-20T09:10:39Z</time></trkpt><trkpt lat="40.149393" lon="-5.848859"><ele>668.4</ele><time>2013-11-20T09:11:01Z</time></trkpt><trkpt lat="40.149291" lon="-5.848981"><ele>670.5</ele><time>2013-11-20T09:11:24Z</time></trkpt><trkpt lat="40.149167" lon="-5.849082"><ele>673.1</ele><time>2013-11-20T09:11:46Z</time></trkpt><trkpt lat="40.149065" lon="-5.849198"><ele>675.6</ele><time>2013-11-20T09:12:07Z</time></trkpt><trkpt lat="40.148997" lon="-5.849321"><ele>677.3</ele><time>2013-11-20T09:12:30Z</time></trkpt><trkpt lat="40.148925" lon="-5.849386"><ele>679.0</ele><time>2013-11-20T09:12:52Z</time></trkpt><trkpt lat="40.148814" lon="-5.849419"><ele>681.9</ele><time>2013-11-20T09:13:13Z</time></trkpt><trkpt lat="40.148764" lon="-5.849461"><ele>683.1</ele><time>2013-11-20T09:13:35Z</time></trkpt><trkpt lat="40.148710" lon="-5.849538"><ele>684.4</ele><time>2013-11-20T09:13:58Z</time></trkpt><trkpt lat="40.148571" lon="-5.849708"><ele>687.6</ele><time>2013-11-20T09:14:20Z</time></trkpt><trkpt lat="40.148489" lon="-5.849825"><ele>689.5</ele><time>2013-11-20T09:14:41Z</time></trkpt><trkpt lat="40.148403" lon="-5.850118"><ele>690.9</ele><time>2013-11-20T09:15:04Z</time></trkpt><trkpt lat="40.148350" lon="-5.850524"><ele>691.3</ele><time>2013-11-20T09:15:26Z</time></trkpt><trkpt lat="40.148306" lon="-5.850771"><ele>692.0</ele><time>2013-11-20T09:15:47Z</time></trkpt><trkpt lat="40.148268" lon="-5.851110"><ele>690.5</ele><time>2013-11-20T09:16:10Z</time></trkpt><trkpt lat="40.148215" lon="-5.851243"><ele>690.7</ele><time>2013-11-20T09:16:32Z</time></trkpt><trkpt lat="40.148065" lon="-5.851401"><ele>693.1</ele><time>2013-11-20T09:16:53Z</time></trkpt><trkpt lat="40.147981" lon="-5.851538"><ele>693.8</ele><time>2013-11-20T09:17:15Z</time></trkpt><trkpt lat="40.147827" lon="-5.851652"><ele>696.3</ele><time>2013-11-20T09:17:38Z</time></trkpt><trkpt lat="40.147739" lon="-5.851640"><ele>698.6</ele><time>2013-11-20T09:18:00Z</time></trkpt><trkpt lat="40.147524" lon="-5.851590"><ele>704.4</ele><time>2013-11-20T09:18:21Z</time></trkpt><trkpt lat="40.147366" lon="-5.851604"><ele>708.3</ele><time>2013-11-20T09:18:44Z</time></trkpt><trkpt lat="40.147250" lon="-5.851672"><ele>710.2</ele><time>2013-11-20T09:19:06Z</time></trkpt><trkpt lat="40.147146" lon="-5.851764"><ele>710.9</ele><time>2013-11-20T09:19:27Z</time></trkpt><trkpt lat="40.146952" lon="-5.851797"><ele>715.1</ele><time>2013-11-20T09:19:49Z</time></trkpt><trkpt lat="40.146839" lon="-5.851887"><ele>716.1</ele><time>2013-11-20T09:20:12Z</time></trkpt><trkpt lat="40.146627" lon="-5.852010"><ele>719.5</ele><time>2013-11-20T09:20:33Z</time></trkpt><trkpt lat="40.146551" lon="-5.852089"><ele>720.8</ele><time>2013-11-20T09:20:55Z</time></trkpt><trkpt lat="40.146491" lon="-5.852224"><ele>720.3</ele><time>2013-11-20T09:21:18Z</time></trkpt><trkpt lat="40.146318" lon="-5.852551"><ele>719.8</ele><time>2013-11-20T09:21:40Z</time></trkpt><trkpt lat="40.146237" lon="-5.852671"><ele>720.0</ele><time>2013-11-20T09:22:01Z</time></trkpt><trkpt lat="40.146183" lon="-5.852663"><ele>722.1</ele><time>2013-11-20T09:22:24Z</time></trkpt><trkpt lat="40.146174" lon="-5.852566"><ele>724.8</ele><time>2013-11-20T09:22:46Z</time></trkpt><trkpt lat="40.146222" lon="-5.852445"><ele>725.7</ele><time>2013-11-20T09:23:07Z</time></trkpt><trkpt lat="40.146229" lon="-5.852351"><ele>727.5</ele><time>2013-11-20T09:23:29Z</time></trkpt><trkpt lat="40.146175" lon="-5.852337"><ele>729.8</ele><time>2013-11-20T09:23:52Z</time></trkpt><trkpt lat="40.146070" lon="-5.852479"><ele>730.7</ele><time>2013-11-20T09:24:14Z</time></trkpt><trkpt lat="40.146004" lon="-5.852503"><ele>732.6</ele><time>2013-11-20T09:24:35Z</time></trkpt><trkpt lat="40.145940" lon="-5.852568"><ele>733.3</ele><time>2013-11-20T09:24:58Z</time></trkpt><trkpt lat="40.145854" lon="-5.852667"><ele>734.0</ele><time>2013-11-20T09:25:20Z</time></trkpt><trkpt lat="40.145716" lon="-5.852799"><ele>734.8</ele><time>2013-11-20T09:25:41Z</time></trkpt><trkpt lat="40.145574" lon="-5.852981"><ele>734.2</ele><time>2013-11-20T09:26:04Z</time></trkpt><trkpt lat="40.145488" lon="-5.853083"><ele>734.0</ele><time>2013-11-20T09:26:26Z</time></trkpt><trkpt lat="40.145272" lon="-5.853256"><ele>735.5</ele><time>2013-11-20T09:26:47Z</time></trkpt><trkpt lat="40.145190" lon="-5.853308"><ele>736.4</ele><time>2013-11-20T09:27:09Z</time></trkpt><trkpt lat="40.145104" lon="-5.853299"><ele>739.0</ele><time>2013-11-20T09:27:32Z</time></trkpt><trkpt lat="40.144962" lon="-5.853310"><ele>742.7</ele><time>2013-11-20T09:27:54Z</time></trkpt><trkpt lat="40.144900" lon="-5.853381"><ele>742.6</ele><time>2013-11-20T09:28:15Z</time></trkpt><trkpt lat="40.144717" lon="-5.853476"><ele>745.3</ele><time>2013-11-20T09:28:38Z</time></trkpt><trkpt lat="40.144593" lon="-5.853559"><ele>746.7</ele><time>2013-11-20T09:29:00Z</time></trkpt><trkpt lat="40.144334" lon="-5.853751"><ele>749.0</ele><time>2013-11-20T09:29:21Z</time></trkpt><trkpt lat="40.144256" lon="-5.853821"><ele>749.3</ele><time>2013-11-20T09:29:43Z</time></trkpt><trkpt lat="40.144012" lon="-5.853931"><ele>749.7</ele><time>2013-11-20T09:30:06Z</time></trkpt><trkpt lat="40.143849" lon="-5.853977"><ele>749.1</ele><time>2013-11-20T09:30:27Z</time></trkpt><trkpt lat="40.143707" lon="-5.853980"><ele>749.7</ele><time>2013-11-20T09:30:49Z</time></trkpt><trkpt lat="40.143597" lon="-5.853966"><ele>750.6</ele><time>2013-11-20T09:31:12Z</time></trkpt><trkpt lat="40.143434" lon="-5.853916"><ele>752.9</ele><time>2013-11-20T09:31:34Z</time></trkpt><trkpt lat="40.143257" lon="-5.853873"><ele>753.5</ele><time>2013-11-20T09:31:55Z</time></trkpt><trkpt lat="40.143100" lon="-5.853863"><ele>751.1</ele><time>2013-11-20T09:32:18Z</time></trkpt><trkpt lat="40.142994" lon="-5.853874"><ele>748.9</ele><time>2013-11-20T09:32:40Z</time></trkpt><trkpt lat="40.142868" lon="-5.853848"><ele>747.6</ele><time>2013-11-20T09:33:01Z</time></trkpt><trkpt lat="40.142716" lon="-5.853809"><ele>746.4</ele><time>2013-11-20T09:33:23Z</time></trkpt><trkpt lat="40.142633" lon="-5.853800"><ele>745.4</ele><time>2013-11-20T09:33:46Z</time></trkpt><trkpt lat="40.142523" lon="-5.853763"><ele>744.9</ele><time>2013-11-20T09:34:08Z</time></trkpt><trkpt lat="40.142458" lon="-5.853675"><ele>746.9</ele><time>2013-11-20T09:34:29Z</time></trkpt><trkpt lat="40.142377" lon="-5.853587"><ele>748.3</ele><time>2013-11-20T09:34:52Z</time></trkpt><trkpt lat="40.142261" lon="-5.853541"><ele>747.2</ele><time>2013-11-20T09:35:14Z</time></trkpt><trkpt lat="40.142186" lon="-5.853488"><ele>747.5</ele><time>2013-11-20T09:35:35Z</time></trkpt><trkpt lat="40.142034" lon="-5.853326"><ele>750.1</ele><time>2013-11-20T09:35:58Z</time></trkpt><trkpt lat="40.141897" lon="-5.853220"><ele>751.2</ele><time>2013-11-20T09:36:20Z</time></trkpt><trkpt lat="40.141761" lon="-5.853191"><ele>749.2</ele><time>2013-11-20T09:36:41Z</time></trkpt><trkpt lat="40.141650" lon="-5.853128"><ele>749.1</ele><time>2013-11-20T09:37:03Z</time></trkpt><trkpt lat="40.141555" lon="-5.853053"><ele>749.4</ele><time>2013-11-20T09:37:26Z</time></trkpt><trkpt lat="40.141465" lon="-5.852947"><ele>751.0</ele><time>2013-11-20T09:37:48Z</time></trkpt><trkpt lat="40.141337" lon="-5.852815"><ele>752.3</ele><time>2013-11-20T09:38:09Z</time></trkpt><trkpt lat="40.141290" lon="-5.852734"><ele>754.0</ele><time>2013-11-20T09:38:32Z</time></trkpt><trkpt lat="40.141192" lon="-5.852610"><ele>755.7</ele><time>2013-11-20T09:38:54Z</time></trkpt><trkpt lat="40.141068" lon="-5.852496"><ele>756.1</ele><time>2013-11-20T09:39:15Z</time></trkpt><trkpt lat="40.140855" lon="-5.852376"><ele>753.9</ele><time>2013-11-20T09:39:37Z</time></trkpt><trkpt lat="40.140710" lon="-5.852223"><ele>757.0</ele><time>2013-11-20T09:40:00Z</time></trkpt><trkpt lat="40.140564" lon="-5.852055"><ele>759.9</ele><time>2013-11-20T09:40:21Z</time></trkpt><trkpt lat="40.140455" lon="-5.851980"><ele>759.7</ele><time>2013-11-20T09:40:43Z</time></trkpt><trkpt lat="40.140362" lon="-5.851830"><ele>762.0</ele><time>2013-11-20T09:41:06Z</time></trkpt><trkpt lat="40.140255" lon="-5.851614"><ele>765.1</ele><time>2013-11-20T09:41:28Z</time></trkpt><trkpt lat="40.140141" lon="-5.851369"><ele>768.1</ele><time>2013-11-20T09:41:49Z</time></trkpt><trkpt lat="40.139975" lon="-5.851089"><ele>770.7</ele><time>2013-11-20T09:42:12Z</time></trkpt><trkpt lat="40.139880" lon="-5.850815"><ele>779.5</ele><time>2013-11-20T09:42:34Z</time></trkpt><trkpt lat="40.139814" lon="-5.850683"><ele>783.3</ele><time>2013-11-20T09:42:55Z</time></trkpt><trkpt lat="40.139766" lon="-5.850526"><ele>787.3</ele><time>2013-11-20T09:43:17Z</time></trkpt><trkpt lat="40.139758" lon="-5.850194"><ele>794.0</ele><time>2013-11-20T09:43:40Z</time></trkpt><trkpt lat="40.139728" lon="-5.850125"><ele>795.8</ele><time>2013-11-20T09:44:02Z</time></trkpt><trkpt lat="40.139758" lon="-5.850126"><ele>795.3</ele><time>2013-11-20T09:44:23Z</time></trkpt><trkpt lat="40.139770" lon="-5.849995"><ele>797.7</ele><time>2013-11-20T09:44:46Z</time></trkpt><trkpt lat="40.139679" lon="-5.849856"><ele>801.9</ele><time>2013-11-20T09:45:08Z</time></trkpt><trkpt lat="40.139583" lon="-5.849720"><ele>805.7</ele><time>2013-11-20T09:45:29Z</time></trkpt><trkpt lat="40.139531" lon="-5.849726"><ele>806.2</ele><time>2013-11-20T09:45:52Z</time></trkpt><trkpt lat="40.139463" lon="-5.849847"><ele>805.0</ele><time>2013-11-20T09:46:14Z</time></trkpt><trkpt lat="40.139424" lon="-5.850030"><ele>802.4</ele><time>2013-11-20T09:46:35Z</time></trkpt><trkpt lat="40.139390" lon="-5.850128"><ele>801.1</ele><time>2013-11-20T09:46:57Z</time></trkpt><trkpt lat="40.139269" lon="-5.850296"><ele>800.0</ele><time>2013-11-20T09:47:20Z</time></trkpt><trkpt lat="40.139199" lon="-5.850499"><ele>797.5</ele><time>2013-11-20T09:47:42Z</time></trkpt><trkpt lat="40.139149" lon="-5.850617"><ele>796.8</ele><time>2013-11-20T09:48:03Z</time></trkpt><trkpt lat="40.139123" lon="-5.850657"><ele>797.5</ele><time>2013-11-20T09:48:26Z</time></trkpt><trkpt lat="40.139099" lon="-5.850709"><ele>797.9</ele><time>2013-11-20T09:48:48Z</time></trkpt><trkpt lat="40.139092" lon="-5.850565"><ele>800.9</ele><time>2013-11-20T09:49:09Z</time></trkpt><trkpt lat="40.139098" lon="-5.850495"><ele>801.8</ele><time>2013-11-20T09:49:31Z</time></trkpt><trkpt lat="40.139044" lon="-5.850560"><ele>803.6</ele><time>2013-11-20T09:49:54Z</time></trkpt><trkpt lat="40.138979" lon="-5.850748"><ele>803.5</ele><time>2013-11-20T09:50:15Z</time></trkpt><trkpt lat="40.138883" lon="-5.850902"><ele>805.1</ele><time>2013-11-20T09:50:37Z</time></trkpt><trkpt lat="40.138757" lon="-5.851085"><ele>806.6</ele><time>2013-11-20T09:51:00Z</time></trkpt><trkpt lat="40.138682" lon="-5.851196"><ele>807.1</ele><time>2013-11-20T09:51:22Z</time></trkpt><trkpt lat="40.138470" lon="-5.851372"><ele>812.1</ele><time>2013-11-20T09:51:43Z</time></trkpt><trkpt lat="40.138389" lon="-5.851468"><ele>812.9</ele><time>2013-11-20T09:52:06Z</time></trkpt><trkpt lat="40.138257" lon="-5.851542"><ele>816.5</ele><time>2013-11-20T09:52:28Z</time></trkpt><trkpt lat="40.138167" lon="-5.851629"><ele>817.8</ele><time>2013-11-20T09:52:49Z</time></trkpt><trkpt lat="40.138053" lon="-5.851754"><ele>819.9</ele><time>2013-11-20T09:53:11Z</time></trkpt><trkpt lat="40.137908" lon="-5.851909"><ele>823.0</ele><time>2013-11-20T09:53:34Z</time></trkpt><trkpt lat="40.137736" lon="-5.852183"><ele>824.6</ele><time>2013-11-20T09:53:56Z</time></trkpt><trkpt lat="40.137632" lon="-5.852411"><ele>824.2</ele><time>2013-11-20T09:54:17Z</time></trkpt><trkpt lat="40.137581" lon="-5.852652"><ele>822.8</ele><time>2013-11-20T09:54:40Z</time></trkpt><trkpt lat="40.137528" lon="-5.852973"><ele>821.7</ele><time>2013-11-20T09:55:02Z</time></trkpt><trkpt lat="40.137482" lon="-5.853088"><ele>822.0</ele><time>2013-11-20T09:55:23Z</time></trkpt><trkpt lat="40.137408" lon="-5.853276"><ele>821.2</ele><time>2013-11-20T09:55:46Z</time></trkpt><trkpt lat="40.137330" lon="-5.853317"><ele>822.0</ele><time>2013-11-20T09:56:08Z</time></trkpt><trkpt lat="40.137287" lon="-5.853230"><ele>823.8</ele><time>2013-11-20T09:56:29Z</time></trkpt><trkpt lat="40.137295" lon="-5.853101"><ele>825.1</ele><time>2013-11-20T09:56:51Z</time></trkpt><trkpt lat="40.137278" lon="-5.852989"><ele>826.7</ele><time>2013-11-20T09:57:14Z</time></trkpt><trkpt lat="40.137223" lon="-5.852998"><ele>827.5</ele><time>2013-11-20T09:57:36Z</time></trkpt><trkpt lat="40.137139" lon="-5.853112"><ele>827.7</ele><time>2013-11-20T09:57:57Z</time></trkpt><trkpt lat="40.137042" lon="-5.853214"><ele>828.1</ele><time>2013-11-20T09:58:20Z</time></trkpt><trkpt lat="40.136954" lon="-5.853245"><ele>829.3</ele><time>2013-11-20T09:58:42Z</time></trkpt><trkpt lat="40.136842" lon="-5.853223"><ele>831.5</ele><time>2013-11-20T09:59:03Z</time></trkpt><trkpt lat="40.136666" lon="-5.853142"><ele>835.5</ele><time>2013-11-20T09:59:25Z</time></trkpt><trkpt lat="40.136594" lon="-5.853019"><ele>835.9</ele><time>2013-11-20T09:59:48Z</time></trkpt><trkpt lat="40.136615" lon="-5.852826"><ele>838.8</ele><time>2013-11-20T10:00:09Z</time></trkpt><trkpt lat="40.136612" lon="-5.852662"><ele>840.9</ele><time>2013-11-20T10:00:31Z</time></trkpt><trkpt lat="40.136531" lon="-5.852415"><ele>843.5</ele><time>2013-11-20T10:00:54Z</time></trkpt><trkpt lat="40.136377" lon="-5.852053"><ele>848.6</ele><time>2013-11-20T10:01:16Z</time></trkpt><trkpt lat="40.136229" lon="-5.851853"><ele>850.7</ele><time>2013-11-20T10:01:37Z</time></trkpt><trkpt lat="40.136035" lon="-5.851616"><ele>853.2</ele><time>2013-11-20T10:02:00Z</time></trkpt><trkpt lat="40.135822" lon="-5.851379"><ele>856.8</ele><time>2013-11-20T10:02:22Z</time></trkpt><trkpt lat="40.135569" lon="-5.851130"><ele>861.1</ele><time>2013-11-20T10:02:43Z</time></trkpt><trkpt lat="40.135356" lon="-5.851004"><ele>863.5</ele><time>2013-11-20T10:03:05Z</time></trkpt><trkpt lat="40.135095" lon="-5.850832"><ele>868.5</ele><time>2013-11-20T10:03:28Z</time></trkpt><trkpt lat="40.134846" lon="-5.850684"><ele>870.1</ele><time>2013-11-20T10:03:50Z</time></trkpt><trkpt lat="40.134617" lon="-5.850545"><ele>871.1</ele><time>2013-11-20T10:04:11Z</time></trkpt><trkpt lat="40.134500" lon="-5.850387"><ele>874.9</ele><time>2013-11-20T10:04:34Z</time></trkpt><trkpt lat="40.134420" lon="-5.850232"><ele>879.3</ele><time>2013-11-20T10:04:56Z</time></trkpt><trkpt lat="40.134310" lon="-5.850118"><ele>882.2</ele><time>2013-11-20T10:05:17Z</time></trkpt><trkpt lat="40.134245" lon="-5.850039"><ele>884.4</ele><time>2013-11-20T10:05:40Z</time></trkpt><trkpt lat="40.134190" lon="-5.849984"><ele>885.8</ele><time>2013-11-20T10:06:02Z</time></trkpt><trkpt lat="40.134072" lon="-5.849924"><ele>885.4</ele><time>2013-11-20T10:06:23Z</time></trkpt><trkpt lat="40.133882" lon="-5.849787"><ele>885.0</ele><time>2013-11-20T10:06:45Z</time></trkpt><trkpt lat="40.133756" lon="-5.849684"><ele>884.7</ele><time>2013-11-20T10:07:08Z</time></trkpt><trkpt lat="40.133665" lon="-5.849637"><ele>883.5</ele><time>2013-11-20T10:07:30Z</time></trkpt><trkpt lat="40.133449" lon="-5.849513"><ele>880.3</ele><time>2013-11-20T10:07:51Z</time></trkpt><trkpt lat="40.133385" lon="-5.849381"><ele>881.3</ele><time>2013-11-20T10:08:14Z</time></trkpt><trkpt lat="40.133211" lon="-5.849037"><ele>883.1</ele><time>2013-11-20T10:08:36Z</time></trkpt><trkpt lat="40.133172" lon="-5.848897"><ele>885.0</ele><time>2013-11-20T10:08:57Z</time></trkpt><trkpt lat="40.133055" lon="-5.848681"><ele>886.6</ele><time>2013-11-20T10:09:19Z</time></trkpt><trkpt lat="40.132916" lon="-5.848488"><ele>887.3</ele><time>2013-11-20T10:09:42Z</time></trkpt><trkpt lat="40.132762" lon="-5.848340"><ele>886.8</ele><time>2013-11-20T10:10:03Z</time></trkpt><trkpt lat="40.132593" lon="-5.848157"><ele>888.8</ele><time>2013-11-20T10:10:25Z</time></trkpt><trkpt lat="40.132237" lon="-5.847884"><ele>888.9</ele><time>2013-11-20T10:10:48Z</time></trkpt><trkpt lat="40.132042" lon="-5.847691"><ele>890.5</ele><time>2013-11-20T10:11:10Z</time></trkpt><trkpt lat="40.131734" lon="-5.847464"><ele>890.1</ele><time>2013-11-20T10:11:31Z</time></trkpt><trkpt lat="40.131499" lon="-5.847252"><ele>892.0</ele><time>2013-11-20T10:11:54Z</time></trkpt><trkpt lat="40.131376" lon="-5.847106"><ele>893.8</ele><time>2013-11-20T10:12:16Z</time></trkpt><trkpt lat="40.131329" lon="-5.846896"><ele>898.3</ele><time>2013-11-20T10:12:37Z</time></trkpt><trkpt lat="40.131240" lon="-5.846604"><ele>903.0</ele><time>2013-11-20T10:12:59Z</time></trkpt><trkpt lat="40.131147" lon="-5.846363"><ele>904.9</ele><time>2013-11-20T10:13:22Z</time></trkpt><trkpt lat="40.131058" lon="-5.846207"><ele>904.7</ele><time>2013-11-20T10:13:44Z</time></trkpt><trkpt lat="40.130867" lon="-5.845938"><ele>901.9</ele><time>2013-11-20T10:14:05Z</time></trkpt><trkpt lat="40.130803" lon="-5.845864"><ele>902.4</ele><time>2013-11-20T10:14:28Z</time></trkpt><trkpt lat="40.130741" lon="-5.845821"><ele>904.7</ele><time>2013-11-20T10:14:50Z</time></trkpt><trkpt lat="40.130659" lon="-5.845785"><ele>907.5</ele><time>2013-11-20T10:15:11Z</time></trkpt><trkpt lat="40.130643" lon="-5.845673"><ele>910.1</ele><time>2013-11-20T10:15:34Z</time></trkpt><trkpt lat="40.130598" lon="-5.845768"><ele>909.4</ele><time>2013-11-20T10:15:56Z</time></trkpt><trkpt lat="40.130462" lon="-5.845795"><ele>912.5</ele><time>2013-11-20T10:16:17Z</time></trkpt><trkpt lat="40.130433" lon="-5.845817"><ele>912.8</ele><time>2013-11-20T10:16:39Z</time></trkpt><trkpt lat="40.130409" lon="-5.845863"><ele>912.9</ele><time>2013-11-20T10:17:02Z</time></trkpt><trkpt lat="40.130349" lon="-5.846022"><ele>913.1</ele><time>2013-11-20T10:17:24Z</time></trkpt><trkpt lat="40.130357" lon="-5.846130"><ele>911.9</ele><time>2013-11-20T10:17:45Z</time></trkpt><trkpt lat="40.130365" lon="-5.846275"><ele>910.4</ele><time>2013-11-20T10:18:08Z</time></trkpt><trkpt lat="40.130375" lon="-5.846436"><ele>908.6</ele><time>2013-11-20T10:18:30Z</time></trkpt><trkpt lat="40.130392" lon="-5.846566"><ele>906.8</ele><time>2013-11-20T10:18:51Z</time></trkpt><trkpt lat="40.130366" lon="-5.846688"><ele>906.6</ele><time>2013-11-20T10:19:13Z</time></trkpt><trkpt lat="40.130288" lon="-5.846923"><ele>907.5</ele><time>2013-11-20T10:19:36Z</time></trkpt><trkpt lat="40.130213" lon="-5.847145"><ele>909.0</ele><time>2013-11-20T10:19:57Z</time></trkpt><trkpt lat="40.130133" lon="-5.847289"><ele>911.7</ele><time>2013-11-20T10:20:19Z</time></trkpt><trkpt lat="40.130083" lon="-5.847407"><ele>913.4</ele><time>2013-11-20T10:20:42Z</time></trkpt><trkpt lat="40.130040" lon="-5.847402"><ele>915.4</ele><time>2013-11-20T10:21:04Z</time></trkpt><trkpt lat="40.130018" lon="-5.847211"><ele>917.2</ele><time>2013-11-20T10:21:25Z</time></trkpt><trkpt lat="40.129990" lon="-5.846960"><ele>919.4</ele><time>2013-11-20T10:21:48Z</time></trkpt><trkpt lat="40.129980" lon="-5.846810"><ele>920.3</ele><time>2013-11-20T10:22:10Z</time></trkpt><trkpt lat="40.129869" lon="-5.846409"><ele>926.4</ele><time>2013-11-20T10:22:31Z</time></trkpt><trkpt lat="40.129842" lon="-5.846306"><ele>927.9</ele><time>2013-11-20T10:22:53Z</time></trkpt><trkpt lat="40.129803" lon="-5.846225"><ele>929.6</ele><time>2013-11-20T10:23:16Z</time></trkpt><trkpt lat="40.129759" lon="-5.846108"><ele>931.6</ele><time>2013-11-20T10:23:38Z</time></trkpt><trkpt lat="40.129678" lon="-5.845914"><ele>935.0</ele><time>2013-11-20T10:23:59Z</time></trkpt><trkpt lat="40.129623" lon="-5.845789"><ele>937.5</ele><time>2013-11-20T10:24:22Z</time></trkpt><trkpt lat="40.129573" lon="-5.845696"><ele>939.9</ele><time>2013-11-20T10:24:44Z</time></trkpt><trkpt lat="40.129488" lon="-5.845604"><ele>943.4</ele><time>2013-11-20T10:25:05Z</time></trkpt><trkpt lat="40.129438" lon="-5.845593"><ele>945.1</ele><time>2013-11-20T10:25:28Z</time></trkpt><trkpt lat="40.129369" lon="-5.845582"><ele>947.4</ele><time>2013-11-20T10:25:50Z</time></trkpt><trkpt lat="40.129281" lon="-5.845563"><ele>950.3</ele><time>2013-11-20T10:26:11Z</time></trkpt><trkpt lat="40.129241" lon="-5.845638"><ele>951.3</ele><time>2013-11-20T10:26:33Z</time></trkpt><trkpt lat="40.129218" lon="-5.845746"><ele>951.6</ele><time>2013-11-20T10:26:56Z</time></trkpt><trkpt lat="40.129180" lon="-5.846008"><ele>952.9</ele><time>2013-11-20T10:27:18Z</time></trkpt><trkpt lat="40.129169" lon="-5.846277"><ele>954.0</ele><time>2013-11-20T10:27:39Z</time></trkpt><trkpt lat="40.129149" lon="-5.846385"><ele>954.9</ele><time>2013-11-20T10:28:02Z</time></trkpt><trkpt lat="40.129095" lon="-5.846538"><ele>957.3</ele><time>2013-11-20T10:28:24Z</time></trkpt><trkpt lat="40.129046" lon="-5.846797"><ele>959.9</ele><time>2013-11-20T10:28:45Z</time></trkpt><trkpt lat="40.128992" lon="-5.846904"><ele>962.3</ele><time>2013-11-20T10:29:07Z</time></trkpt><trkpt lat="40.128945" lon="-5.847072"><ele>964.7</ele><time>2013-11-20T10:29:30Z</time></trkpt><trkpt lat="40.128920" lon="-5.847176"><ele>966.1</ele><time>2013-11-20T10:29:51Z</time></trkpt><trkpt lat="40.128880" lon="-5.847410"><ele>968.7</ele><time>2013-11-20T10:30:13Z</time></trkpt><trkpt lat="40.128820" lon="-5.847577"><ele>972.0</ele><time>2013-11-20T10:30:36Z</time></trkpt><trkpt lat="40.128790" lon="-5.847705"><ele>974.0</ele><time>2013-11-20T10:30:58Z</time></trkpt><trkpt lat="40.128766" lon="-5.848115"><ele>977.5</ele><time>2013-11-20T10:31:19Z</time></trkpt><trkpt lat="40.128746" lon="-5.848190"><ele>978.8</ele><time>2013-11-20T10:31:42Z</time></trkpt><trkpt lat="40.128695" lon="-5.848361"><ele>982.3</ele><time>2013-11-20T10:32:04Z</time></trkpt><trkpt lat="40.128693" lon="-5.848516"><ele>983.3</ele><time>2013-11-20T10:32:25Z</time></trkpt><trkpt lat="40.128672" lon="-5.848809"><ele>986.1</ele><time>2013-11-20T10:32:47Z</time></trkpt><trkpt lat="40.128627" lon="-5.849197"><ele>990.4</ele><time>2013-11-20T10:33:10Z</time></trkpt><trkpt lat="40.128586" lon="-5.849398"><ele>992.6</ele><time>2013-11-20T10:33:32Z</time></trkpt><trkpt lat="40.128554" lon="-5.849602"><ele>994.4</ele><time>2013-11-20T10:33:53Z</time></trkpt><trkpt lat="40.128522" lon="-5.849794"><ele>996.2</ele><time>2013-11-20T10:34:16Z</time></trkpt><trkpt lat="40.128493" lon="-5.849969"><ele>997.8</ele><time>2013-11-20T10:34:38Z</time></trkpt><trkpt lat="40.128336" lon="-5.850403"><ele>1001.5</ele><time>2013-11-20T10:34:59Z</time></trkpt><trkpt lat="40.128274" lon="-5.850526"><ele>1002.8</ele><time>2013-11-20T10:35:22Z</time></trkpt><trkpt lat="40.128234" lon="-5.850601"><ele>1003.7</ele><time>2013-11-20T10:35:44Z</time></trkpt><trkpt lat="40.128118" lon="-5.850763"><ele>1006.6</ele><time>2013-11-20T10:36:05Z</time></trkpt><trkpt lat="40.128053" lon="-5.850813"><ele>1008.6</ele><time>2013-11-20T10:36:27Z</time></trkpt><trkpt lat="40.127919" lon="-5.850963"><ele>1011.3</ele><time>2013-11-20T10:36:50Z</time></trkpt><trkpt lat="40.127817" lon="-5.851062"><ele>1013.4</ele><time>2013-11-20T10:37:12Z</time></trkpt><trkpt lat="40.127732" lon="-5.851128"><ele>1015.4</ele><time>2013-11-20T10:37:33Z</time></trkpt><trkpt lat="40.127707" lon="-5.851174"><ele>1015.5</ele><time>2013-11-20T10:37:56Z</time></trkpt><trkpt lat="40.127689" lon="-5.851062"><ele>1018.0</ele><time>2013-11-20T10:38:18Z</time></trkpt><trkpt lat="40.127724" lon="-5.850838"><ele>1020.6</ele><time>2013-11-20T10:38:39Z</time></trkpt><trkpt lat="40.127759" lon="-5.850675"><ele>1021.0</ele><time>2013-11-20T10:39:01Z</time></trkpt><trkpt lat="40.127792" lon="-5.850439"><ele>1022.1</ele><time>2013-11-20T10:39:24Z</time></trkpt><trkpt lat="40.127811" lon="-5.850120"><ele>1024.5</ele><time>2013-11-20T10:39:45Z</time></trkpt><trkpt lat="40.127797" lon="-5.849896"><ele>1026.2</ele><time>2013-11-20T10:40:07Z</time></trkpt><trkpt lat="40.127759" lon="-5.849586"><ele>1027.8</ele><time>2013-11-20T10:40:30Z</time></trkpt><trkpt lat="40.127678" lon="-5.849410"><ele>1031.2</ele><time>2013-11-20T10:40:52Z</time></trkpt><trkpt lat="40.127652" lon="-5.849453"><ele>1032.3</ele><time>2013-11-20T10:41:13Z</time></trkpt><trkpt lat="40.127633" lon="-5.849490"><ele>1033.1</ele><time>2013-11-20T10:41:36Z</time></trkpt><trkpt lat="40.127620" lon="-5.849654"><ele>1033.5</ele><time>2013-11-20T10:41:58Z</time></trkpt><trkpt lat="40.127406" lon="-5.850044"><ele>1040.8</ele><time>2013-11-20T10:42:19Z</time></trkpt><trkpt lat="40.127322" lon="-5.850255"><ele>1041.6</ele><time>2013-11-20T10:42:41Z</time></trkpt><trkpt lat="40.127178" lon="-5.850489"><ele>1044.6</ele><time>2013-11-20T10:43:04Z</time></trkpt><trkpt lat="40.126940" lon="-5.850861"><ele>1050.0</ele><time>2013-11-20T10:43:26Z</time></trkpt><trkpt lat="40.126793" lon="-5.851039"><ele>1052.2</ele><time>2013-11-20T10:43:47Z</time></trkpt><trkpt lat="40.126674" lon="-5.851143"><ele>1054.8</ele><time>2013-11-20T10:44:10Z</time></trkpt><trkpt lat="40.126652" lon="-5.851121"><ele>1055.9</ele><time>2013-11-20T10:44:32Z</time></trkpt><trkpt lat="40.126681" lon="-5.850955"><ele>1058.1</ele><time>2013-11-20T10:44:53Z</time></trkpt><trkpt lat="40.126730" lon="-5.850764"><ele>1059.1</ele><time>2013-11-20T10:45:16Z</time></trkpt><trkpt lat="40.126810" lon="-5.850456"><ele>1058.4</ele><time>2013-11-20T10:45:38Z</time></trkpt><trkpt lat="40.126883" lon="-5.850160"><ele>1058.2</ele><time>2013-11-20T10:45:59Z</time></trkpt><trkpt lat="40.126868" lon="-5.850095"><ele>1059.2</ele><time>2013-11-20T10:46:21Z</time></trkpt><trkpt lat="40.126830" lon="-5.850084"><ele>1060.7</ele><time>2013-11-20T10:46:44Z</time></trkpt><trkpt lat="40.126761" lon="-5.850158"><ele>1062.5</ele><time>2013-11-20T10:47:06Z</time></trkpt><trkpt lat="40.126611" lon="-5.850325"><ele>1066.1</ele><time>2013-11-20T10:47:27Z</time></trkpt><trkpt lat="40.126477" lon="-5.850460"><ele>1068.5</ele><time>2013-11-20T10:47:50Z</time></trkpt><trkpt lat="40.126225" lon="-5.850690"><ele>1073.2</ele><time>2013-11-20T10:48:12Z</time></trkpt><trkpt lat="40.126069" lon="-5.850821"><ele>1076.1</ele><time>2013-11-20T10:48:33Z</time></trkpt><trkpt lat="40.125927" lon="-5.850915"><ele>1078.5</ele><time>2013-11-20T10:48:55Z</time></trkpt><trkpt lat="40.125767" lon="-5.851008"><ele>1080.9</ele><time>2013-11-20T10:49:18Z</time></trkpt><trkpt lat="40.125699" lon="-5.851052"><ele>1081.6</ele><time>2013-11-20T10:49:39Z</time></trkpt><trkpt lat="40.125635" lon="-5.851079"><ele>1082.5</ele><time>2013-11-20T10:50:01Z</time></trkpt><trkpt lat="40.125537" lon="-5.851034"><ele>1084.8</ele><time>2013-11-20T10:50:24Z</time></trkpt><trkpt lat="40.125473" lon="-5.850996"><ele>1086.4</ele><time>2013-11-20T10:50:46Z</time></trkpt><trkpt lat="40.125281" lon="-5.850926"><ele>1090.5</ele><time>2013-11-20T10:51:07Z</time></trkpt><trkpt lat="40.125198" lon="-5.850879"><ele>1092.3</ele><time>2013-11-20T10:51:30Z</time></trkpt><trkpt lat="40.125102" lon="-5.850766"><ele>1094.7</ele><time>2013-11-20T10:51:52Z</time></trkpt><trkpt lat="40.125039" lon="-5.850673"><ele>1096.3</ele><time>2013-11-20T10:52:13Z</time></trkpt><trkpt lat="40.124983" lon="-5.850477"><ele>1098.6</ele><time>2013-11-20T10:52:35Z</time></trkpt><trkpt lat="40.124960" lon="-5.850399"><ele>1099.8</ele><time>2013-11-20T10:52:58Z</time></trkpt><trkpt lat="40.124907" lon="-5.850470"><ele>1100.8</ele><time>2013-11-20T10:53:20Z</time></trkpt><trkpt lat="40.124747" lon="-5.850819"><ele>1103.1</ele><time>2013-11-20T10:53:41Z</time></trkpt><trkpt lat="40.124596" lon="-5.851126"><ele>1105.2</ele><time>2013-11-20T10:54:04Z</time></trkpt><trkpt lat="40.124413" lon="-5.851409"><ele>1108.3</ele><time>2013-11-20T10:54:26Z</time></trkpt><trkpt lat="40.124255" lon="-5.851622"><ele>1111.0</ele><time>2013-11-20T10:54:47Z</time></trkpt><trkpt lat="40.124110" lon="-5.851807"><ele>1114.8</ele><time>2013-11-20T10:55:10Z</time></trkpt><trkpt lat="40.123988" lon="-5.851913"><ele>1118.1</ele><time>2013-11-20T10:55:32Z</time></trkpt><trkpt lat="40.123741" lon="-5.852264"><ele>1123.6</ele><time>2013-11-20T10:55:53Z</time></trkpt><trkpt lat="40.123599" lon="-5.852475"><ele>1126.0</ele><time>2013-11-20T10:56:15Z</time></trkpt><trkpt lat="40.123565" lon="-5.852482"><ele>1126.6</ele><time>2013-11-20T10:56:38Z</time></trkpt><trkpt lat="40.123497" lon="-5.852494"><ele>1127.9</ele><time>2013-11-20T10:57:00Z</time></trkpt><trkpt lat="40.123400" lon="-5.852493"><ele>1129.8</ele><time>2013-11-20T10:57:21Z</time></trkpt><trkpt lat="40.123348" lon="-5.852482"><ele>1130.8</ele><time>2013-11-20T10:57:44Z</time></trkpt><trkpt lat="40.123266" lon="-5.852464"><ele>1132.0</ele><time>2013-11-20T10:58:06Z</time></trkpt><trkpt lat="40.123230" lon="-5.852454"><ele>1132.6</ele><time>2013-11-20T10:58:27Z</time></trkpt><trkpt lat="40.123176" lon="-5.852434"><ele>1133.4</ele><time>2013-11-20T10:58:49Z</time></trkpt><trkpt lat="40.123123" lon="-5.852397"><ele>1134.4</ele><time>2013-11-20T10:59:12Z</time></trkpt><trkpt lat="40.123046" lon="-5.852417"><ele>1135.2</ele><time>2013-11-20T10:59:33Z</time></trkpt><trkpt lat="40.122755" lon="-5.852510"><ele>1137.8</ele><time>2013-11-20T10:59:55Z</time></trkpt><trkpt lat="40.122594" lon="-5.852571"><ele>1138.8</ele><time>2013-11-20T11:00:18Z</time></trkpt><trkpt lat="40.122188" lon="-5.852704"><ele>1141.0</ele><time>2013-11-20T11:00:40Z</time></trkpt><trkpt lat="40.121947" lon="-5.852776"><ele>1142.1</ele><time>2013-11-20T11:01:01Z</time></trkpt><trkpt lat="40.121721" lon="-5.852810"><ele>1143.7</ele><time>2013-11-20T11:01:24Z</time></trkpt><trkpt lat="40.121579" lon="-5.852822"><ele>1144.7</ele><time>2013-11-20T11:01:46Z</time></trkpt><trkpt lat="40.121449" lon="-5.852793"><ele>1146.2</ele><time>2013-11-20T11:02:07Z</time></trkpt><trkpt lat="40.120924" lon="-5.852642"><ele>1153.3</ele><time>2013-11-20T11:02:29Z</time></trkpt><trkpt lat="40.120724" lon="-5.852610"><ele>1155.0</ele><time>2013-11-20T11:02:52Z</time></trkpt><trkpt lat="40.120600" lon="-5.852608"><ele>1155.6</ele><time>2013-11-20T11:03:14Z</time></trkpt><trkpt lat="40.120435" lon="-5.852657"><ele>1155.4</ele><time>2013-11-20T11:03:35Z</time></trkpt><trkpt lat="40.120185" lon="-5.852749"><ele>1155.3</ele><time>2013-11-20T11:03:58Z</time></trkpt><trkpt lat="40.120055" lon="-5.852802"><ele>1155.4</ele><time>2013-11-20T11:04:20Z</time></trkpt><trkpt lat="40.119931" lon="-5.852812"><ele>1155.8</ele><time>2013-11-20T11:04:41Z</time></trkpt><trkpt lat="40.119557" lon="-5.852802"><ele>1157.0</ele><time>2013-11-20T11:05:04Z</time></trkpt><trkpt lat="40.119496" lon="-5.852805"><ele>1157.1</ele><time>2013-11-20T11:05:26Z</time></trkpt><trkpt lat="40.119353" lon="-5.852782"><ele>1157.8</ele><time>2013-11-20T11:05:47Z</time></trkpt><trkpt lat="40.119174" lon="-5.852803"><ele>1158.1</ele><time>2013-11-20T11:06:09Z</time></trkpt><trkpt lat="40.119020" lon="-5.852779"><ele>1158.1</ele><time>2013-11-20T11:06:32Z</time></trkpt><trkpt lat="40.118918" lon="-5.852702"><ele>1158.7</ele><time>2013-11-20T11:06:54Z</time></trkpt><trkpt lat="40.118827" lon="-5.852560"><ele>1160.0</ele><time>2013-11-20T11:07:15Z</time></trkpt><trkpt lat="40.118683" lon="-5.852352"><ele>1161.7</ele><time>2013-11-20T11:07:38Z</time></trkpt><trkpt lat="40.118582" lon="-5.852171"><ele>1163.2</ele><time>2013-11-20T11:08:00Z</time></trkpt><trkpt lat="40.118408" lon="-5.851915"><ele>1165.1</ele><time>2013-11-20T11:08:21Z</time></trkpt><trkpt lat="40.118311" lon="-5.851752"><ele>1166.2</ele><time>2013-11-20T11:08:43Z</time></trkpt><trkpt lat="40.118257" lon="-5.851647"><ele>1167.0</ele><time>2013-11-20T11:09:06Z</time></trkpt><trkpt lat="40.118183" lon="-5.851565"><ele>1167.4</ele><time>2013-11-20T11:09:27Z</time></trkpt><trkpt lat="40.118142" lon="-5.851484"><ele>1167.9</ele><time>2013-11-20T11:09:49Z</time></trkpt><trkpt lat="40.118099" lon="-5.851318"><ele>1168.9</ele><time>2013-11-20T11:10:12Z</time></trkpt><trkpt lat="40.118003" lon="-5.851000"><ele>1171.0</ele><time>2013-11-20T11:10:34Z</time></trkpt><trkpt lat="40.117983" lon="-5.850891"><ele>1171.7</ele><time>2013-11-20T11:10:55Z</time></trkpt><trkpt lat="40.117962" lon="-5.850814"><ele>1172.2</ele><time>2013-11-20T11:11:18Z</time></trkpt><trkpt lat="40.117916" lon="-5.850686"><ele>1172.7</ele><time>2013-11-20T11:11:40Z</time></trkpt><trkpt lat="40.117867" lon="-5.850475"><ele>1173.6</ele><time>2013-11-20T11:12:01Z</time></trkpt><trkpt lat="40.117814" lon="-5.850344"><ele>1174.1</ele><time>2013-11-20T11:12:23Z</time></trkpt><trkpt lat="40.117721" lon="-5.850026"><ele>1175.4</ele><time>2013-11-20T11:12:46Z</time></trkpt><trkpt lat="40.117609" lon="-5.849626"><ele>1176.3</ele><time>2013-11-20T11:13:08Z</time></trkpt><trkpt lat="40.117556" lon="-5.849392"><ele>1176.7</ele><time>2013-11-20T11:13:29Z</time></trkpt><trkpt lat="40.117572" lon="-5.849293"><ele>1177.1</ele><time>2013-11-20T11:13:52Z</time></trkpt><trkpt lat="40.117603" lon="-5.849144"><ele>1177.6</ele><time>2013-11-20T11:14:14Z</time></trkpt><trkpt lat="40.117643" lon="-5.848967"><ele>1178.1</ele><time>2013-11-20T11:14:35Z</time></trkpt><trkpt lat="40.117658" lon="-5.848900"><ele>1178.3</ele><time>2013-11-20T11:14:58Z</time></trkpt><trkpt lat="40.117715" lon="-5.848519"><ele>1179.1</ele><time>2013-11-20T11:15:20Z</time></trkpt><trkpt lat="40.117718" lon="-5.848662"><ele>1178.9</ele><time>2013-11-20T11:15:41Z</time></trkpt></trkseg></trk></gpx>